Huvudsida
METAR-TAF:

METAR-TAF

Flygplatser :

Joensuu, Finland

Joensuu flygplats

latitud: 62-40N, longitud: 029-38E, höjd: 119 m

Aktuellt väderrapport

Denna rapport gjordes för 33 minuter sedan, klockan 02:50 UTC
Vind 4 kt från ost
Temperatur -10°C
Fuktighet 92%
Tryck 1002 hPa
Sikt: 7000 m
Mulet på en höjd av 900 ft
lätt snö

METAR: EFJO 190250Z AUTO 10004KT 7000 -SN OVC009 M10/M11 Q1002

Tid: 05:23 (03:23 UTC)

Väderprognos

Denna rapport gjordes för 56 minuter sedan, klockan 02:27 UTC
Prognos gäller från 19 kl. 03 UTC till 19 kl. 08 UTC
Vind 7 kt från ost
Sikt: 8000 m
Brutna moln på en höjd av 1000 ft
lätt snö
Temporärt
från 19 kl. 03 UTC till 19 kl. 05 UTC
Sikt: 2000 m
Brutna moln på en höjd av 2500 ft
snö
Temporärt
från 19 kl. 05 UTC till 19 kl. 08 UTC
Sikt: 2500 m
Brutna moln på en höjd av 500 ft

TAF: EFJO 190227Z 1903/1908 08007KT 8000 -SN BKN010 TEMPO 1903/1905 2000 SN BKN025 TEMPO 1905/1908 2500 BKN005

Aktuella väderrapporter och prognoser från 4000 flygplatser (METAR- och TAF-rapporter).

De tillgängliga stationerna syns som gula och röda prickar på kartan.

För musen över prickarna för att se namnen på stationerna.

Klicka sedan för att få väderrapporter och prognoser.

För att ändra kartan: Klicka på de gröna knapparna med ett svart kors på för att zooma in; den gröna knappen med ett streck på för att zooma ut; eller på de gröna pilarna för angränsande kartor.


METAR-TAF: